Aviation Digital Data Service (ADDS)

Output produced by METARs form (1303 UTC 19 January 2018)
found at http://aviationweather.gov/adds/metars/
 
KHKS 191253Z 10003KT 10SM OVC050 M02/M05 A3037 RMK AO2 SLP282 T10171050